createdAt,value
2022-11-15T00:00:58.422Z,72.03
2022-11-15T00:03:27.830Z,91.60
2022-11-15T00:05:55.104Z,67.63
2022-11-15T00:08:21.937Z,49.30
2022-11-15T00:11:00.227Z,22.17
2022-11-15T00:13:28.030Z,33.97
2022-11-15T00:15:58.402Z,36.20
2022-11-15T00:18:25.453Z,24.50
2022-11-15T00:20:52.500Z,37.10
2022-11-15T00:23:19.290Z,23.67
2022-11-15T00:25:46.353Z,22.73
2022-11-15T00:28:13.373Z,52.13
2022-11-15T00:30:40.432Z,33.23
2022-11-15T00:33:07.724Z,58.97
2022-11-15T00:35:35.818Z,175.60
2022-11-15T00:38:03.589Z,125.37
2022-11-15T00:40:30.865Z,140.60
2022-11-15T00:42:58.223Z,68.10
2022-11-15T00:45:25.773Z,35.07
2022-11-15T00:47:52.765Z,166.80
2022-11-15T00:50:20.172Z,233.57
2022-11-15T00:52:46.943Z,56.93
2022-11-15T00:55:16.772Z,32.23
2022-11-15T00:57:43.762Z,83.10
2022-11-15T01:00:12.061Z,83.53
2022-11-15T01:02:39.443Z,37.40
2022-11-15T01:05:07.341Z,108.00
2022-11-15T01:07:34.442Z,186.50
2022-11-15T01:10:01.693Z,78.60
2022-11-15T01:12:28.583Z,159.17
2022-11-15T01:14:55.722Z,46.73
2022-11-15T01:17:22.554Z,20.60
2022-11-15T01:19:49.682Z,207.07
2022-11-15T01:22:16.520Z,257.87
2022-11-15T01:24:43.623Z,56.33
2022-11-15T01:27:11.185Z,60.33
2022-11-15T01:29:38.259Z,78.10
2022-11-15T01:32:05.091Z,120.60
2022-11-15T01:34:32.192Z,55.07
2022-11-15T01:36:59.033Z,143.97
2022-11-15T01:39:26.354Z,70.60
2022-11-15T01:41:53.575Z,60.93
2022-11-15T01:44:29.470Z,29.60
2022-11-15T01:46:56.726Z,295.33
2022-11-15T01:49:25.062Z,136.60
2022-11-15T01:51:52.974Z,176.13
2022-11-15T01:54:22.332Z,70.18
2022-11-15T01:56:54.729Z,82.82
2022-11-15T01:59:22.881Z,18.33
2022-11-15T02:01:50.073Z,25.00
2022-11-15T02:04:23.845Z,24.70
2022-11-15T02:06:50.776Z,47.47
2022-11-15T02:09:18.586Z,27.27
2022-11-15T02:11:48.022Z,41.47
2022-11-15T02:14:18.770Z,25.07
2022-11-15T02:17:01.419Z,24.33
2022-11-15T02:19:34.311Z,72.37
2022-11-15T02:22:04.065Z,185.97
2022-11-15T02:25:08.061Z,75.50
2022-11-15T02:28:02.407Z,42.47
2022-11-15T02:30:32.432Z,73.70
2022-11-15T02:33:06.204Z,56.53
2022-11-15T02:35:39.342Z,179.03
2022-11-15T02:38:08.845Z,92.47
2022-11-15T02:40:35.845Z,64.30
2022-11-15T02:43:31.325Z,44.07
2022-11-15T02:46:10.921Z,43.30
2022-11-15T02:51:05.665Z,51.37
2022-11-15T02:53:32.793Z,38.13
2022-11-15T02:56:00.124Z,99.47
2022-11-15T02:58:45.540Z,27.37
2022-11-15T03:01:18.533Z,51.53
2022-11-15T03:04:03.597Z,57.83
2022-11-15T03:06:41.183Z,5.87
2022-11-15T03:09:15.159Z,15.67
2022-11-15T03:11:49.735Z,35.30
2022-11-15T03:14:27.047Z,38.83
2022-11-15T03:17:15.633Z,91.80
2022-11-15T03:19:46.763Z,5.75
2022-11-15T03:22:18.482Z,8.90
2022-11-15T03:24:48.352Z,29.83
2022-11-15T03:27:22.711Z,27.57
2022-11-15T03:29:54.688Z,34.00
2022-11-15T03:32:26.734Z,22.93
2022-11-15T03:34:59.875Z,13.67
2022-11-15T03:37:35.237Z,91.97
2022-11-15T03:40:03.489Z,17.10
2022-11-15T03:42:44.359Z,11.95
2022-11-15T03:45:36.364Z,26.60
2022-11-15T03:48:11.486Z,9.70
2022-11-15T03:50:38.398Z,5.77
2022-11-15T03:53:06.073Z,9.67
2022-11-15T03:55:33.954Z,10.87
2022-11-15T03:58:02.191Z,10.80
2022-11-15T04:00:29.671Z,9.10
2022-11-15T04:02:56.981Z,10.83
2022-11-15T04:05:23.806Z,18.43
2022-11-15T04:07:50.875Z,33.10
2022-11-15T04:10:17.933Z,18.13
2022-11-15T04:12:48.614Z,27.70
2022-11-15T04:15:18.078Z,61.77
2022-11-15T04:17:54.470Z,36.57
2022-11-15T04:20:46.198Z,12.57
2022-11-15T04:23:34.909Z,11.57
2022-11-15T04:26:08.209Z,90.50
2022-11-15T04:28:35.252Z,45.43
2022-11-15T04:31:02.209Z,14.57
2022-11-15T04:33:29.737Z,87.47
2022-11-15T04:36:15.475Z,32.10
2022-11-15T04:38:42.502Z,7.13
2022-11-15T04:41:09.254Z,9.60
2022-11-15T04:43:36.427Z,4.20
2022-11-15T04:46:03.383Z,9.67
2022-11-15T04:48:30.525Z,12.87
2022-11-15T04:50:57.274Z,7.10
2022-11-15T04:53:24.321Z,7.93
2022-11-15T04:55:51.061Z,14.03
2022-11-15T04:58:18.069Z,13.27
2022-11-15T05:00:44.910Z,6.80
2022-11-15T05:03:30.871Z,6.00
2022-11-15T05:05:58.938Z,3.57
2022-11-15T05:08:26.515Z,13.23
2022-11-15T05:10:53.274Z,5.17
2022-11-15T05:13:20.342Z,12.33
2022-11-15T05:15:48.068Z,6.43
2022-11-15T05:18:18.279Z,4.23
2022-11-15T05:20:49.061Z,13.43
2022-11-15T05:23:16.135Z,10.00
2022-11-15T05:25:42.934Z,16.87
2022-11-15T05:28:09.994Z,14.23
2022-11-15T05:30:36.744Z,9.33
2022-11-15T05:33:04.590Z,12.77
2022-11-15T05:35:35.421Z,9.33
2022-11-15T05:38:02.437Z,9.83
2022-11-15T05:40:31.362Z,20.43
2022-11-15T05:43:00.918Z,56.97
2022-11-15T05:45:27.968Z,91.70
2022-11-15T05:47:57.779Z,37.43
2022-11-15T05:50:24.727Z,18.40
2022-11-15T05:52:52.623Z,20.40
2022-11-15T05:55:19.608Z,63.47
2022-11-15T05:57:46.681Z,32.03
2022-11-15T06:00:13.896Z,205.40
2022-11-15T06:02:40.914Z,92.27
2022-11-15T06:05:07.739Z,25.30
2022-11-15T06:07:34.869Z,69.00
2022-11-15T06:10:02.165Z,72.07
2022-11-15T06:12:29.214Z,116.47
2022-11-15T06:14:55.966Z,112.97
2022-11-15T06:17:23.000Z,83.03
2022-11-15T06:19:49.820Z,86.27
2022-11-15T06:22:16.894Z,61.10
2022-11-15T06:24:44.997Z,54.20
2022-11-15T06:27:12.570Z,32.92
2022-11-15T06:29:39.333Z,34.33
2022-11-15T06:32:06.993Z,39.67
2022-11-15T06:34:33.848Z,50.23
2022-11-15T06:37:01.050Z,41.90
2022-11-15T06:39:27.852Z,17.03
2022-11-15T06:41:54.930Z,29.30
2022-11-15T06:44:21.683Z,43.47
2022-11-15T06:46:48.670Z,35.20
2022-11-15T06:49:15.463Z,68.27
2022-11-15T06:51:42.464Z,65.13
2022-11-15T06:54:09.200Z,77.07
2022-11-15T06:56:36.242Z,99.10
2022-11-15T06:59:03.034Z,72.37
2022-11-15T07:01:30.137Z,120.47
2022-11-15T07:03:56.914Z,154.53
2022-11-15T07:06:23.946Z,142.77
2022-11-15T07:08:50.726Z,112.27
2022-11-15T07:11:17.741Z,135.27
2022-11-15T07:13:44.477Z,94.90
2022-11-15T07:16:12.102Z,91.10
2022-11-15T07:18:40.458Z,67.70
2022-11-15T07:21:10.705Z,93.25
2022-11-15T07:23:39.203Z,30.70
2022-11-15T07:26:07.309Z,54.40
2022-11-15T07:28:34.790Z,17.90
2022-11-15T07:31:07.453Z,10.17
2022-11-15T07:33:35.213Z,97.77
2022-11-15T07:36:04.566Z,2.95
2022-11-15T07:38:31.692Z,4.18
2022-11-15T07:41:00.526Z,5.10
2022-11-15T07:43:31.746Z,5.68
2022-11-15T07:45:59.847Z,3.65
2022-11-15T07:48:35.598Z,7.63
2022-11-15T07:51:15.731Z,103.43
2022-11-15T07:53:44.199Z,11.25
2022-11-15T07:56:12.185Z,8.10
2022-11-15T07:58:38.962Z,5.28
2022-11-15T08:01:07.181Z,5.28
2022-11-15T08:03:34.822Z,7.70
2022-11-15T08:06:02.844Z,6.28
2022-11-15T08:08:30.041Z,5.75
2022-11-15T08:10:59.577Z,8.25
2022-11-15T08:13:26.352Z,4.07
2022-11-15T08:15:57.560Z,4.55
2022-11-15T08:18:24.554Z,3.65
2022-11-15T08:20:51.716Z,2.95
2022-11-15T08:23:18.434Z,3.53
2022-11-15T08:25:45.487Z,2.88
2022-11-15T08:28:12.402Z,3.80
2022-11-15T08:30:43.091Z,3.45
2022-11-15T08:33:14.414Z,4.15
2022-11-15T08:35:45.252Z,9.32
2022-11-15T08:38:12.295Z,22.58
2022-11-15T08:40:39.368Z,6.78
2022-11-15T08:43:06.702Z,4.35
2022-11-15T08:45:36.216Z,5.90
2022-11-15T08:48:04.195Z,3.13
2022-11-15T08:50:31.417Z,5.05
2022-11-15T08:52:58.767Z,3.72
2022-11-15T08:55:25.863Z,2.83
2022-11-15T08:57:52.615Z,5.40
2022-11-15T09:00:21.039Z,2.80
2022-11-15T09:02:47.930Z,2.38
2022-11-15T09:05:16.543Z,151.82
2022-11-15T09:07:43.376Z,8.18
2022-11-15T09:10:10.575Z,10.05
2022-11-15T09:12:37.456Z,5.72
2022-11-15T09:15:06.410Z,4.32
2022-11-15T09:17:33.123Z,5.03
2022-11-15T09:20:00.360Z,3.67
2022-11-15T09:22:27.208Z,3.75
2022-11-15T09:24:54.246Z,4.93
2022-11-15T09:27:20.987Z,3.88
2022-11-15T09:29:48.005Z,4.03
2022-11-15T09:32:14.763Z,5.15
2022-11-15T09:34:41.811Z,5.15
2022-11-15T09:37:08.586Z,6.30
2022-11-15T09:39:36.115Z,6.88
2022-11-15T09:42:36.868Z,4.95
2022-11-15T09:45:27.252Z,4.35
2022-11-15T09:48:20.292Z,6.65
2022-11-15T09:50:50.657Z,5.82
2022-11-15T09:54:01.127Z,6.13
2022-11-15T09:56:30.529Z,7.78
2022-11-15T09:59:12.314Z,4.88
2022-11-15T10:02:03.566Z,6.82
2022-11-15T10:04:32.817Z,7.43
2022-11-15T10:07:14.907Z,8.80
2022-11-15T10:09:57.623Z,9.45
2022-11-15T10:12:26.154Z,13.55
2022-11-15T10:15:08.023Z,10.50
2022-11-15T10:17:35.019Z,9.85
2022-11-15T10:20:20.838Z,11.77
2022-11-15T10:22:51.609Z,9.82
2022-11-15T10:25:27.599Z,9.10
2022-11-15T10:28:02.846Z,12.40
2022-11-15T10:30:36.154Z,10.45
2022-11-15T10:33:14.976Z,10.45
2022-11-15T10:35:42.570Z,9.23
2022-11-15T10:38:12.488Z,9.75
2022-11-15T10:40:41.153Z,12.70
2022-11-15T10:43:10.982Z,11.43
2022-11-15T10:45:39.312Z,12.23
2022-11-15T10:48:15.210Z,11.52
2022-11-15T10:50:47.089Z,11.70
2022-11-15T10:53:43.048Z,9.77
2022-11-15T10:56:14.520Z,14.63
2022-11-15T10:58:51.029Z,11.43
2022-11-15T11:01:25.682Z,14.05
2022-11-15T11:04:07.799Z,13.02
2022-11-15T11:06:50.440Z,13.43
2022-11-15T11:09:36.616Z,14.23
2022-11-15T11:12:10.830Z,12.88
2022-11-15T11:14:40.072Z,13.45
2022-11-15T11:17:22.022Z,15.02
2022-11-15T11:19:55.140Z,11.18
2022-11-15T11:22:55.586Z,13.45
2022-11-15T11:25:25.574Z,14.88
2022-11-15T11:28:48.954Z,13.07
2022-11-15T11:31:27.516Z,15.35
2022-11-15T11:34:15.768Z,15.07
2022-11-15T11:36:59.805Z,13.25
2022-11-15T11:40:10.625Z,12.80
2022-11-15T11:42:44.821Z,14.82
2022-11-15T11:45:24.467Z,17.77
2022-11-15T11:48:03.823Z,14.50
2022-11-15T11:50:30.719Z,13.13
2022-11-15T11:53:15.708Z,15.43
2022-11-15T11:55:53.972Z,13.25
2022-11-15T11:58:41.230Z,14.85
2022-11-15T12:01:31.423Z,14.48
2022-11-15T12:04:12.630Z,13.75
2022-11-15T12:06:43.701Z,13.27
2022-11-15T12:09:17.251Z,14.40
2022-11-15T12:12:02.102Z,12.82
2022-11-15T12:14:34.291Z,12.88
2022-11-15T12:17:01.558Z,15.57
2022-11-15T12:19:30.921Z,13.13
2022-11-15T12:22:16.457Z,12.98
2022-11-15T12:25:14.184Z,14.80
2022-11-15T12:27:58.446Z,18.17
2022-11-15T12:30:42.194Z,17.70
2022-11-15T12:33:46.830Z,21.52
2022-11-15T12:36:42.591Z,19.05
2022-11-15T12:39:11.797Z,24.27
2022-11-15T12:42:05.126Z,19.30
2022-11-15T12:44:31.882Z,19.63
2022-11-15T12:46:58.890Z,17.10
2022-11-15T12:49:28.806Z,17.85
2022-11-15T12:51:58.646Z,23.33
2022-11-15T12:54:25.584Z,35.75
2022-11-15T12:57:05.030Z,45.55
2022-11-15T13:02:40.682Z,61.42
2022-11-15T13:05:16.307Z,32.47
2022-11-15T13:07:43.415Z,33.00
2022-11-15T13:10:12.981Z,29.83
2022-11-15T13:12:46.014Z,34.58
2022-11-15T13:15:12.677Z,58.83
2022-11-15T13:17:45.534Z,68.57
2022-11-15T13:20:12.278Z,87.68
2022-11-15T13:23:01.922Z,44.67
2022-11-15T13:25:37.890Z,38.25
2022-11-15T13:28:10.744Z,30.75
2022-11-15T13:30:38.465Z,28.45
2022-11-15T13:33:12.144Z,28.50
2022-11-15T13:35:42.074Z,30.58
2022-11-15T13:38:21.288Z,29.88
2022-11-15T13:40:48.035Z,30.77
2022-11-15T13:43:24.101Z,27.90
2022-11-15T13:46:19.503Z,28.85
2022-11-15T13:48:51.816Z,30.42
2022-11-15T13:51:21.168Z,35.38
2022-11-15T13:54:00.985Z,42.05
2022-11-15T13:56:30.167Z,41.50
2022-11-15T13:58:57.446Z,42.25
2022-11-15T14:01:29.169Z,35.22
2022-11-15T14:04:01.637Z,40.80
2022-11-15T14:06:31.826Z,36.92
2022-11-15T14:09:20.324Z,32.83
2022-11-15T14:11:52.031Z,32.35
2022-11-15T14:14:24.623Z,41.78
2022-11-15T14:16:54.915Z,49.60
2022-11-15T14:19:21.942Z,51.15
2022-11-15T14:22:08.901Z,43.13
2022-11-15T14:24:36.292Z,58.17
2022-11-15T14:27:27.446Z,61.53
2022-11-15T14:29:54.725Z,95.75
2022-11-15T14:32:24.167Z,56.42
2022-11-15T14:34:57.783Z,35.72
2022-11-15T14:37:27.455Z,36.65
2022-11-15T14:39:55.185Z,48.60
2022-11-15T14:42:23.633Z,39.08
2022-11-15T14:44:51.309Z,95.35
2022-11-15T14:47:18.682Z,100.60
2022-11-15T14:49:46.451Z,94.57
2022-11-15T14:52:32.815Z,114.55
2022-11-15T14:55:04.274Z,100.78
2022-11-15T14:57:31.816Z,128.13
2022-11-15T14:59:58.963Z,146.88
2022-11-15T15:02:27.876Z,124.78
2022-11-15T15:04:55.448Z,121.20
2022-11-15T15:07:23.272Z,115.38
2022-11-15T15:09:50.370Z,93.13
2022-11-15T15:12:19.736Z,105.85
2022-11-15T15:14:49.099Z,109.73
2022-11-15T15:17:17.335Z,155.50
2022-11-15T15:19:44.457Z,179.15
2022-11-15T15:22:17.439Z,134.57
2022-11-15T15:24:46.203Z,191.10
2022-11-15T15:27:13.563Z,256.63
2022-11-15T15:29:41.524Z,242.97
2022-11-15T15:32:09.964Z,204.40
2022-11-15T15:34:37.013Z,194.27
2022-11-15T15:37:09.940Z,208.20
2022-11-15T15:39:36.993Z,206.00
2022-11-15T15:42:04.971Z,239.70
2022-11-15T15:44:31.974Z,164.20
2022-11-15T15:46:59.025Z,304.63
2022-11-15T15:49:26.061Z,401.33
2022-11-15T15:51:52.891Z,300.83
2022-11-15T15:54:19.913Z,248.17
2022-11-15T15:56:48.338Z,272.33
2022-11-15T15:59:16.995Z,277.00
2022-11-15T16:01:43.779Z,262.13
2022-11-15T16:04:10.897Z,259.33
2022-11-15T16:06:44.349Z,232.97
2022-11-15T16:09:20.198Z,206.13
2022-11-15T16:11:48.083Z,180.20
2022-11-15T16:14:15.176Z,201.23
2022-11-15T16:16:42.173Z,181.00
2022-11-15T16:19:11.576Z,182.40
2022-11-15T16:21:38.312Z,336.52
2022-11-15T16:24:05.638Z,356.57
2022-11-15T16:26:35.869Z,533.27
2022-11-15T16:29:02.978Z,333.50
2022-11-15T16:31:29.847Z,328.03
2022-11-15T16:33:56.920Z,359.10
2022-11-15T16:36:30.441Z,331.33
2022-11-15T16:38:59.556Z,285.80
2022-11-15T16:41:26.794Z,246.83
2022-11-15T16:43:53.840Z,288.53
2022-11-15T16:46:25.891Z,285.57
2022-11-15T16:48:54.335Z,288.33
2022-11-15T16:51:21.536Z,287.37
2022-11-15T16:53:51.691Z,304.43
2022-11-15T16:56:23.972Z,306.43
2022-11-15T16:58:51.143Z,307.70
2022-11-15T17:01:22.688Z,277.60
2022-11-15T17:03:49.814Z,265.73
2022-11-15T17:06:18.788Z,286.07
2022-11-15T17:11:19.178Z,286.70
2022-11-15T17:13:46.848Z,293.17
2022-11-15T17:16:15.874Z,312.13
2022-11-15T17:18:46.785Z,303.73
2022-11-15T17:21:15.908Z,335.93
2022-11-15T17:23:43.740Z,352.60
2022-11-15T17:26:29.633Z,336.53
2022-11-15T17:28:59.291Z,370.13
2022-11-15T17:31:26.065Z,381.30
2022-11-15T17:33:53.523Z,366.70
2022-11-15T17:36:21.126Z,354.63
2022-11-15T17:38:55.425Z,347.30
2022-11-15T17:41:27.032Z,330.90
2022-11-15T17:43:56.295Z,324.53
2022-11-15T17:46:23.064Z,331.73
2022-11-15T17:48:50.121Z,326.37
2022-11-15T17:51:18.639Z,325.53
2022-11-15T17:56:11.850Z,339.20
2022-11-15T17:58:39.738Z,340.63
2022-11-15T18:01:15.932Z,364.50
2022-11-15T18:03:43.291Z,362.63
2022-11-15T18:06:11.848Z,353.87
2022-11-15T18:08:41.278Z,346.67
2022-11-15T18:11:12.601Z,371.02
2022-11-15T18:13:41.603Z,385.97
2022-11-15T18:16:12.169Z,387.60
2022-11-15T18:18:39.776Z,399.73
2022-11-15T18:21:28.217Z,405.47
2022-11-15T18:24:01.012Z,420.75
2022-11-15T18:26:30.130Z,414.47
2022-11-15T18:29:02.600Z,375.27
2022-11-15T18:31:30.902Z,386.03
2022-11-15T18:34:01.114Z,388.00
2022-11-15T18:36:29.965Z,379.33
2022-11-15T18:38:59.339Z,408.90
2022-11-15T18:41:28.688Z,422.20
2022-11-15T18:44:00.599Z,437.67
2022-11-15T18:46:30.858Z,432.33
2022-11-15T18:49:00.119Z,448.13
2022-11-15T18:51:32.358Z,425.08
2022-11-15T18:54:01.950Z,389.20
2022-11-15T18:58:59.661Z,324.47
2022-11-15T19:01:41.396Z,293.57
2022-11-15T19:04:14.390Z,333.43
2022-11-15T19:06:43.801Z,420.73
2022-11-15T19:09:14.524Z,415.40
2022-11-15T19:11:41.828Z,394.10
2022-11-15T19:14:11.421Z,397.90
2022-11-15T19:19:10.679Z,365.05
2022-11-15T19:21:38.383Z,349.90
2022-11-15T19:24:06.067Z,349.15
2022-11-15T19:26:33.348Z,354.03
2022-11-15T19:29:01.864Z,330.77
2022-11-15T19:31:31.455Z,323.77
2022-11-15T19:34:00.475Z,312.93
2022-11-15T19:36:32.528Z,258.40
2022-11-15T19:39:08.329Z,235.47
2022-11-15T19:41:38.518Z,254.57
2022-11-15T19:44:06.586Z,248.77
2022-11-15T19:46:34.032Z,349.30
2022-11-15T19:49:01.825Z,348.97
2022-11-15T19:51:30.849Z,358.07
2022-11-15T19:54:06.722Z,375.13
2022-11-15T19:56:34.579Z,372.43
2022-11-15T19:59:02.862Z,359.57
2022-11-15T20:01:31.972Z,366.27
2022-11-15T20:04:00.380Z,347.05
2022-11-15T20:06:30.683Z,338.40
2022-11-15T20:08:58.456Z,346.07
2022-11-15T20:11:26.010Z,310.23
2022-11-15T20:14:00.384Z,280.83
2022-11-15T20:16:27.147Z,380.17
2022-11-15T20:18:54.294Z,379.63
2022-11-15T20:21:21.986Z,373.33
2022-11-15T20:23:51.097Z,368.13
2022-11-15T20:26:19.276Z,368.08
2022-11-15T20:28:48.178Z,363.88
2022-11-15T20:31:16.338Z,339.58
2022-11-15T20:33:43.721Z,337.23
2022-11-15T20:36:12.979Z,354.53
2022-11-15T20:38:40.132Z,371.50
2022-11-15T20:41:06.956Z,366.53
2022-11-15T20:43:34.169Z,375.93
2022-11-15T20:46:00.917Z,362.30
2022-11-15T20:48:28.004Z,359.13
2022-11-15T20:51:05.188Z,362.13
2022-11-15T20:53:32.447Z,361.37
2022-11-15T20:56:05.379Z,371.00
2022-11-15T20:58:33.017Z,363.77
2022-11-15T21:01:00.168Z,354.10
2022-11-15T21:03:27.771Z,346.57
2022-11-15T21:05:54.864Z,355.53
2022-11-15T21:08:21.961Z,376.23
2022-11-15T21:11:11.936Z,364.43
2022-11-15T21:13:39.451Z,370.03
2022-11-15T21:16:06.707Z,327.03
2022-11-15T21:18:34.293Z,354.80
2022-11-15T21:21:07.492Z,360.97
2022-11-15T21:23:34.568Z,339.70
2022-11-15T21:26:01.299Z,339.45
2022-11-15T21:28:28.332Z,337.80
2022-11-15T21:31:01.217Z,340.40
2022-11-15T21:33:28.558Z,324.63
2022-11-15T21:35:56.826Z,316.73
2022-11-15T21:38:24.795Z,192.00
2022-11-15T21:40:52.715Z,211.27
2022-11-15T21:43:20.777Z,189.77
2022-11-15T21:46:02.424Z,127.73
2022-11-15T21:48:31.422Z,99.30
2022-11-15T21:51:03.870Z,98.25
2022-11-15T21:53:31.779Z,77.60
2022-11-15T21:55:59.812Z,51.77
2022-11-15T21:58:27.739Z,41.77
2022-11-15T22:01:14.186Z,33.43
2022-11-15T22:03:42.357Z,33.40
2022-11-15T22:06:16.050Z,29.60
2022-11-15T22:08:45.600Z,31.70
2022-11-15T22:11:12.671Z,25.60
2022-11-15T22:13:40.014Z,22.37
2022-11-15T22:16:07.634Z,22.05
2022-11-15T22:18:34.902Z,29.63
2022-11-15T22:21:12.433Z,29.48
2022-11-15T22:23:40.348Z,24.37
2022-11-15T22:26:08.662Z,19.45
2022-11-15T22:28:36.137Z,13.63
2022-11-15T22:31:03.991Z,11.65
2022-11-15T22:33:32.939Z,12.95
2022-11-15T22:36:00.457Z,11.68
2022-11-15T22:38:28.426Z,12.73
2022-11-15T22:40:55.607Z,18.38
2022-11-15T22:43:24.498Z,13.20
2022-11-15T22:45:51.224Z,14.90
2022-11-15T22:48:20.453Z,14.75
2022-11-15T22:50:47.413Z,14.50
2022-11-15T22:53:14.544Z,12.15
2022-11-15T22:55:42.207Z,14.15
2022-11-15T22:58:10.073Z,11.93
2022-11-15T23:00:37.460Z,12.23
2022-11-15T23:03:04.585Z,11.85
2022-11-15T23:05:31.325Z,11.77
2022-11-15T23:07:58.335Z,11.45
2022-11-15T23:10:43.451Z,12.90
2022-11-15T23:13:17.262Z,10.27
2022-11-15T23:16:07.843Z,10.98
2022-11-15T23:18:39.180Z,12.32
2022-11-15T23:21:15.001Z,13.15
2022-11-15T23:23:42.243Z,11.73
2022-11-15T23:26:09.153Z,11.10
2022-11-15T23:28:36.377Z,11.18
2022-11-15T23:31:26.599Z,15.35
2022-11-15T23:33:59.354Z,8.70
2022-11-15T23:36:27.529Z,13.73
2022-11-15T23:38:55.019Z,13.43
2022-11-15T23:41:23.806Z,11.52
2022-11-15T23:43:52.029Z,11.40
2022-11-15T23:46:18.852Z,16.88
2022-11-15T23:48:46.308Z,13.68
2022-11-15T23:51:13.208Z,11.73
2022-11-15T23:53:40.373Z,11.50
2022-11-15T23:56:11.145Z,12.05
2022-11-15T23:58:38.203Z,11.73
